Time;durP1;ratioP1;P1;durP2;ratioP2;P2;SDS_P1;SDS_P2;PMS_P1;PMS_P2;Temp;Humidity;BMP_temperature;BMP_pressure;BME280_temperature;BME280_humidity;BME280_pressure;Samples;Min_cycle;Max_cycle;Signal;HPM_P1;HPM_P2
2021/11/26 00:02:21;;;;;;;10.32;8.60;;;5.60;65.20;;;;;;4998309;28;20036;-61
2021/11/26 00:04:48;;;;;;;12.85;9.38;;;5.60;65.10;;;;;;4998339;28;20036;-61
2021/11/26 00:07:14;;;;;;;10.02;7.88;;;5.60;65.20;;;;;;4997924;28;20089;-61
2021/11/26 00:09:39;;;;;;;11.00;8.95;;;5.60;65.40;;;;;;5005775;28;20018;-61
2021/11/26 00:12:06;;;;;;;10.45;8.07;;;5.50;65.40;;;;;;4998204;28;20026;-61
2021/11/26 00:14:34;;;;;;;11.73;8.48;;;5.50;65.50;;;;;;4998305;28;20074;-61
2021/11/26 00:17:02;;;;;;;10.02;8.20;;;5.50;65.60;;;;;;4997984;28;20085;-61
2021/11/26 00:19:28;;;;;;;10.45;7.60;;;5.40;65.70;;;;;;4997995;28;20081;-61
2021/11/26 00:21:55;;;;;;;12.63;8.18;;;5.40;65.90;;;;;;4997821;28;20030;-61
2021/11/26 00:24:22;;;;;;;9.52;7.78;;;5.40;66.10;;;;;;4997817;28;20089;-60
2021/11/26 00:26:49;;;;;;;9.05;7.45;;;5.50;66.10;;;;;;4998085;28;20126;-60
2021/11/26 00:29:15;;;;;;;10.02;8.38;;;5.50;66.20;;;;;;4997917;28;20101;-61
2021/11/26 00:31:41;;;;;;;9.70;7.97;;;5.50;66.40;;;;;;4997824;28;20430;-61
2021/11/26 00:34:08;;;;;;;10.32;8.02;;;5.50;66.40;;;;;;4993740;28;20402;-61
2021/11/26 00:36:34;;;;;;;10.52;8.40;;;5.60;66.40;;;;;;4981600;28;20042;-61
2021/11/26 00:39:01;;;;;;;11.95;8.90;;;5.60;66.30;;;;;;4991622;28;20081;-61
2021/11/26 00:41:27;;;;;;;14.73;8.75;;;5.60;66.40;;;;;;4994080;28;20053;-60
2021/11/26 00:43:53;;;;;;;11.23;8.40;;;5.60;66.40;;;;;;5017073;28;20034;-61
2021/11/26 00:46:20;;;;;;;13.05;9.25;;;5.60;66.40;;;;;;5017159;28;20030;-61
2021/11/26 00:48:46;;;;;;;11.45;9.10;;;5.60;66.60;;;;;;5017002;28;20018;-61
2021/11/26 00:51:12;;;;;;;10.68;8.95;;;5.60;66.60;;;;;;4998629;28;20046;-61
2021/11/26 00:53:38;;;;;;;11.50;9.10;;;5.60;66.60;;;;;;4997432;28;20019;-61
2021/11/26 00:56:05;;;;;;;9.80;7.70;;;5.60;66.60;;;;;;5001316;28;20026;-61
2021/11/26 00:58:31;;;;;;;12.15;8.98;;;5.70;66.60;;;;;;5006203;28;20402;-61
2021/11/26 01:00:57;;;;;;;11.05;8.45;;;5.70;66.70;;;;;;5001407;28;20079;-61
2021/11/26 01:03:23;;;;;;;11.25;8.40;;;5.60;66.60;;;;;;5001716;28;20543;-61
2021/11/26 01:05:49;;;;;;;12.30;8.77;;;5.60;66.70;;;;;;5003931;28;20022;-61
2021/11/26 01:08:19;;;;;;;10.80;8.48;;;5.60;66.80;;;;;;5002930;28;20026;-61
2021/11/26 01:10:46;;;;;;;10.82;8.50;;;5.60;66.90;;;;;;5003537;28;20030;-61
2021/11/26 01:13:12;;;;;;;11.20;8.82;;;5.60;67.00;;;;;;5005060;28;20026;-61
2021/11/26 01:15:39;;;;;;;10.88;7.47;;;5.70;67.00;;;;;;5006633;28;20022;-61
2021/11/26 01:18:06;;;;;;;12.80;8.98;;;5.60;67.10;;;;;;5003251;28;20053;-61
2021/11/26 01:20:34;;;;;;;10.30;8.15;;;5.70;67.20;;;;;;4998882;28;20068;-61
2021/11/26 01:23:00;;;;;;;10.60;8.15;;;5.70;67.40;;;;;;5003317;28;20033;-61
2021/11/26 01:25:27;;;;;;;9.88;8.25;;;5.80;67.30;;;;;;5004784;28;20025;-61
2021/11/26 01:27:53;;;;;;;11.45;8.38;;;5.90;67.30;;;;;;4997279;28;20021;-61
2021/11/26 01:30:32;;;;;;;10.70;7.68;;;5.90;67.30;;;;;;4998628;28;20378;-61
2021/11/26 01:33:01;;;;;;;10.38;7.90;;;6.00;67.20;;;;;;4997043;28;20027;-61
2021/11/26 01:35:27;;;;;;;9.85;8.07;;;6.00;67.20;;;;;;5002408;28;20026;-59
2021/11/26 01:37:53;;;;;;;9.82;7.80;;;6.00;67.00;;;;;;5000860;28;20034;-61
2021/11/26 01:40:19;;;;;;;10.98;8.50;;;6.00;67.00;;;;;;5006381;28;20100;-61
2021/11/26 01:42:47;;;;;;;9.57;8.27;;;6.00;66.90;;;;;;5004555;28;20458;-61
2021/11/26 01:45:14;;;;;;;9.88;7.60;;;6.00;67.00;;;;;;5001344;28;20033;-61
2021/11/26 01:47:40;;;;;;;9.57;7.75;;;6.00;67.00;;;;;;5004401;28;20018;-61
2021/11/26 01:50:07;;;;;;;10.40;8.43;;;6.00;67.10;;;;;;5011910;28;20498;-61
2021/11/26 01:52:34;;;;;;;10.13;7.88;;;6.00;67.30;;;;;;5000203;28;20027;-61
2021/11/26 01:54:59;;;;;;;12.90;8.57;;;5.90;67.40;;;;;;4995484;28;20081;-60
2021/11/26 01:57:25;;;;;;;10.57;8.57;;;5.90;67.30;;;;;;4994944;28;20027;-61
2021/11/26 01:59:52;;;;;;;11.73;9.13;;;5.90;67.50;;;;;;4996392;28;20069;-61
2021/11/26 02:02:19;;;;;;;11.50;9.05;;;5.90;67.60;;;;;;4996292;28;20033;-61
2021/11/26 02:04:45;;;;;;;11.13;9.00;;;5.90;67.60;;;;;;4996150;28;20030;-61
2021/11/26 02:07:12;;;;;;;11.60;8.60;;;5.90;67.70;;;;;;5000328;28;20038;-61
2021/11/26 02:09:39;;;;;;;10.02;8.63;;;5.90;67.90;;;;;;5015566;28;20013;-61
2021/11/26 02:12:06;;;;;;;11.82;8.82;;;5.90;67.80;;;;;;5015573;28;20076;-61
2021/11/26 02:14:32;;;;;;;10.10;8.50;;;5.90;68.00;;;;;;5015381;28;20077;-62
2021/11/26 02:16:57;;;;;;;11.52;9.13;;;5.90;68.10;;;;;;5015631;28;20100;-61
2021/11/26 02:19:25;;;;;;;11.07;8.25;;;5.90;68.20;;;;;;5007165;28;20054;-61
2021/11/26 02:21:52;;;;;;;11.00;8.95;;;5.90;68.20;;;;;;4995311;28;20061;-61
2021/11/26 02:24:18;;;;;;;13.50;9.40;;;5.90;68.40;;;;;;5007466;28;20037;-61
2021/11/26 02:26:46;;;;;;;13.07;9.35;;;5.90;68.40;;;;;;5013942;28;20026;-61
2021/11/26 02:29:13;;;;;;;12.52;9.55;;;5.80;68.30;;;;;;5000279;28;20034;-60
2021/11/26 02:31:39;;;;;;;11.90;9.60;;;5.80;68.40;;;;;;4995556;28;20104;-61
2021/11/26 02:34:05;;;;;;;12.50;9.45;;;5.80;68.60;;;;;;4993402;28;20480;-61
2021/11/26 02:36:31;;;;;;;12.02;9.25;;;5.80;68.70;;;;;;4976962;28;20058;-61
2021/11/26 02:38:57;;;;;;;11.10;8.88;;;5.80;68.80;;;;;;4992974;28;20099;-61
2021/11/26 02:41:23;;;;;;;13.45;8.95;;;5.80;68.90;;;;;;4991992;28;20483;-61
2021/11/26 02:43:50;;;;;;;11.60;8.50;;;5.70;69.00;;;;;;4995293;28;20383;-61
2021/11/26 02:46:18;;;;;;;10.75;8.73;;;5.70;69.00;;;;;;4995257;28;20030;-61
2021/11/26 02:48:46;;;;;;;10.90;8.95;;;5.70;69.10;;;;;;4994908;28;20026;-61
2021/11/26 02:51:13;;;;;;;12.15;9.15;;;5.70;69.10;;;;;;4995179;28;20030;-61
2021/11/26 02:53:39;;;;;;;11.48;8.68;;;5.70;69.40;;;;;;4995242;28;20026;-61
2021/11/26 02:56:05;;;;;;;13.48;8.95;;;5.70;69.40;;;;;;5001172;28;20093;-61
2021/11/26 02:58:31;;;;;;;10.90;8.93;;;5.70;69.50;;;;;;5013349;28;20042;-61
2021/11/26 03:00:59;;;;;;;9.60;8.20;;;5.70;69.40;;;;;;5014836;28;20367;-61
2021/11/26 03:03:26;;;;;;;10.80;8.30;;;5.80;69.80;;;;;;5014649;28;20454;-61
2021/11/26 03:06:00;;;;;;;10.00;8.48;;;5.80;69.70;;;;;;5014605;28;20355;-60
2021/11/26 03:08:26;;;;;;;12.43;8.70;;;5.80;69.80;;;;;;5003832;28;20212;-61
2021/11/26 03:10:52;;;;;;;10.48;8.02;;;5.90;69.80;;;;;;4995537;28;20092;-62
2021/11/26 03:13:18;;;;;;;10.70;8.77;;;5.90;69.80;;;;;;5013128;28;20030;-61
2021/11/26 03:15:44;;;;;;;10.68;8.52;;;5.90;69.70;;;;;;5014186;28;20029;-61
2021/11/26 03:18:15;;;;;;;10.52;8.52;;;5.90;69.60;;;;;;5007244;28;20030;-61
2021/11/26 03:20:41;;;;;;;12.18;8.52;;;5.90;69.70;;;;;;4994850;28;20371;-61
2021/11/26 03:23:07;;;;;;;11.52;8.68;;;5.90;69.60;;;;;;4994771;28;20037;-61
2021/11/26 03:25:32;;;;;;;10.52;7.97;;;6.00;69.80;;;;;;4994475;28;20037;-61
2021/11/26 03:27:58;;;;;;;11.32;8.40;;;6.00;69.80;;;;;;4993905;28;20157;-62
2021/11/26 03:30:24;;;;;;;10.13;8.77;;;6.00;69.90;;;;;;5007935;28;20044;-61
2021/11/26 03:32:52;;;;;;;10.10;8.05;;;6.00;69.80;;;;;;4999650;28;20030;-61
2021/11/26 03:35:19;;;;;;;11.05;8.65;;;6.00;69.80;;;;;;4994804;28;20023;-61
2021/11/26 03:37:46;;;;;;;9.70;8.48;;;6.10;70.00;;;;;;4994613;28;20034;-61
2021/11/26 03:40:13;;;;;;;9.88;7.40;;;6.10;69.70;;;;;;4994114;28;20053;-61
2021/11/26 03:42:39;;;;;;;10.60;7.82;;;6.10;69.70;;;;;;4994369;28;20026;-61
2021/11/26 03:45:06;;;;;;;10.93;8.40;;;6.10;69.70;;;;;;5002525;28;20026;-61
2021/11/26 03:47:32;;;;;;;10.38;7.93;;;6.10;69.70;;;;;;5014133;28;20021;-61
2021/11/26 03:49:58;;;;;;;12.05;9.00;;;6.00;69.70;;;;;;4999472;28;20030;-61
2021/11/26 03:52:24;;;;;;;10.60;7.75;;;6.10;70.00;;;;;;4993426;28;20102;-61
2021/11/26 03:54:49;;;;;;;10.45;8.10;;;6.00;69.80;;;;;;4990660;28;20463;-61
2021/11/26 03:57:15;;;;;;;11.90;8.27;;;6.00;69.90;;;;;;4994403;28;20034;-61
2021/11/26 03:59:41;;;;;;;11.35;8.27;;;6.00;70.00;;;;;;4994112;28;20038;-61
2021/11/26 04:02:08;;;;;;;12.80;8.32;;;6.10;70.30;;;;;;5006117;28;20034;-61
2021/11/26 04:04:33;;;;;;;13.45;9.27;;;6.10;70.20;;;;;;5014198;28;20084;-61
2021/11/26 04:06:59;;;;;;;9.73;8.40;;;6.10;70.10;;;;;;5013526;28;20475;-61
2021/11/26 04:09:25;;;;;;;11.48;8.85;;;6.10;70.20;;;;;;5002028;28;20063;-61
2021/11/26 04:11:51;;;;;;;12.18;9.02;;;6.10;70.20;;;;;;4974798;28;20035;-61
2021/11/26 04:14:17;;;;;;;12.48;9.13;;;6.10;70.20;;;;;;4973889;28;20034;-61
2021/11/26 04:16:45;;;;;;;11.60;8.32;;;6.20;70.30;;;;;;4986354;28;20470;-61
2021/11/26 04:19:11;;;;;;;13.73;8.80;;;6.30;70.40;;;;;;5000309;28;20096;-61
2021/11/26 04:21:37;;;;;;;10.50;8.20;;;6.30;70.50;;;;;;5000818;28;20109;-61
2021/11/26 04:24:03;;;;;;;10.25;8.32;;;6.40;70.40;;;;;;4994472;28;20539;-61
2021/11/26 04:26:30;;;;;;;11.35;8.52;;;6.40;70.20;;;;;;4993809;28;20099;-61
2021/11/26 04:28:56;;;;;;;12.27;9.15;;;6.50;70.30;;;;;;4991018;28;20038;-61
2021/11/26 04:31:22;;;;;;;11.48;8.98;;;6.50;70.10;;;;;;4994058;28;20041;-61
2021/11/26 04:33:48;;;;;;;13.15;9.40;;;6.50;69.90;;;;;;4994048;28;20030;-62
2021/11/26 04:36:14;;;;;;;13.48;9.30;;;6.50;70.00;;;;;;4994005;28;20121;-61
2021/11/26 04:38:41;;;;;;;11.02;9.25;;;6.50;70.00;;;;;;4994097;28;20454;-61
2021/11/26 04:41:07;;;;;;;12.55;9.38;;;6.50;70.10;;;;;;4993640;28;20046;-61
2021/11/26 04:43:32;;;;;;;15.38;9.55;;;6.50;70.00;;;;;;4994032;28;20026;-61
2021/11/26 04:45:58;;;;;;;12.88;9.60;;;6.40;70.10;;;;;;4995840;28;20038;-61
2021/11/26 04:48:24;;;;;;;15.35;10.73;;;6.50;70.30;;;;;;4997145;28;20022;-61
2021/11/26 04:50:51;;;;;;;11.98;8.88;;;6.50;70.20;;;;;;4997453;28;20377;-61
2021/11/26 04:53:17;;;;;;;12.82;9.75;;;6.50;70.20;;;;;;4997357;28;20018;-61
2021/11/26 04:55:43;;;;;;;12.85;9.63;;;6.50;70.10;;;;;;4997516;28;20366;-61
2021/11/26 04:58:09;;;;;;;15.15;9.75;;;6.50;70.20;;;;;;4997130;28;20122;-61
2021/11/26 05:00:35;;;;;;;14.02;11.30;;;6.40;70.30;;;;;;4997297;28;20451;-61
2021/11/26 05:03:01;;;;;;;18.60;16.10;;;6.40;70.30;;;;;;4997137;28;20037;-61
2021/11/26 05:05:27;;;;;;;18.42;16.45;;;6.30;70.40;;;;;;4997305;28;20026;-61
2021/11/26 05:07:53;;;;;;;16.55;14.80;;;6.30;70.50;;;;;;4996957;28;20046;-61
2021/11/26 05:10:20;;;;;;;15.00;11.00;;;6.30;70.60;;;;;;4997300;28;20026;-61
2021/11/26 05:12:58;;;;;;;12.73;10.93;;;6.30;70.70;;;;;;4992513;28;20093;-61
2021/11/26 05:15:26;;;;;;;11.45;8.82;;;6.30;70.90;;;;;;4997221;28;20026;-61
2021/11/26 05:17:58;;;;;;;11.40;8.43;;;6.30;71.00;;;;;;4997359;28;20351;-61
2021/11/26 05:20:25;;;;;;;11.35;8.13;;;6.30;70.80;;;;;;4996444;28;20019;-61
2021/11/26 05:22:51;;;;;;;12.05;8.38;;;6.20;70.80;;;;;;4996907;28;20019;-61
2021/11/26 05:25:18;;;;;;;9.23;7.65;;;6.20;70.90;;;;;;4996814;28;20026;-61
2021/11/26 05:27:44;;;;;;;9.82;8.00;;;6.10;71.00;;;;;;4996713;28;20038;-61
2021/11/26 05:30:11;;;;;;;10.50;7.75;;;6.10;71.20;;;;;;4996790;28;20033;-61
2021/11/26 05:32:39;;;;;;;10.93;7.88;;;6.10;71.30;;;;;;4996505;28;20018;-61
2021/11/26 05:35:09;;;;;;;12.50;7.20;;;6.20;71.50;;;;;;4996834;28;20482;-61
2021/11/26 05:37:35;;;;;;;10.65;7.72;;;6.20;71.40;;;;;;4996488;28;20030;-61
2021/11/26 05:40:02;;;;;;;9.82;7.53;;;6.20;71.40;;;;;;4996308;28;20511;-61
2021/11/26 05:42:28;;;;;;;10.23;7.95;;;6.30;71.20;;;;;;4995402;28;20030;-61
2021/11/26 05:44:54;;;;;;;9.23;7.80;;;6.30;71.10;;;;;;4996447;28;20471;-61
2021/11/26 05:47:19;;;;;;;9.68;7.82;;;6.30;71.00;;;;;;4996291;28;20034;-61
2021/11/26 05:49:45;;;;;;;10.30;7.88;;;6.30;71.10;;;;;;4996060;28;20044;-61
2021/11/26 05:52:11;;;;;;;9.10;7.55;;;6.30;71.20;;;;;;4996367;28;20109;-61
2021/11/26 05:54:37;;;;;;;9.65;7.38;;;6.20;71.20;;;;;;4996275;28;20027;-61
2021/11/26 05:57:04;;;;;;;10.68;7.47;;;6.20;71.30;;;;;;4995177;28;20031;-61
2021/11/26 05:59:30;;;;;;;10.57;7.97;;;6.20;71.40;;;;;;4996190;28;20034;-61
2021/11/26 06:01:58;;;;;;;12.15;7.18;;;6.20;71.60;;;;;;4996062;28;20105;-61
2021/11/26 06:04:28;;;;;;;10.50;7.68;;;6.30;71.60;;;;;;4996318;28;20386;-61
2021/11/26 06:06:54;;;;;;;10.93;8.73;;;6.40;71.60;;;;;;4996073;28;20030;-61
2021/11/26 06:09:20;;;;;;;9.50;8.23;;;6.50;71.60;;;;;;4990959;28;20038;-61
2021/11/26 06:11:45;;;;;;;12.40;8.52;;;6.50;71.50;;;;;;4999908;28;20347;-61
2021/11/26 06:14:11;;;;;;;10.18;7.32;;;6.60;71.30;;;;;;4993905;28;20061;-61
2021/11/26 06:16:37;;;;;;;10.02;7.60;;;6.70;71.10;;;;;;4986434;28;20367;-61
2021/11/26 06:19:02;;;;;;;9.88;7.88;;;6.70;70.90;;;;;;4992807;28;20097;-61
2021/11/26 06:21:28;;;;;;;11.38;7.40;;;6.70;70.90;;;;;;4989633;28;20018;-61
2021/11/26 06:23:54;;;;;;;11.50;7.07;;;6.70;70.80;;;;;;4994330;28;20061;-61
2021/11/26 06:26:20;;;;;;;8.88;7.68;;;6.70;70.70;;;;;;4994375;28;20027;-61
2021/11/26 06:28:45;;;;;;;10.35;7.88;;;6.70;70.80;;;;;;4987229;28;20038;-62
2021/11/26 06:31:11;;;;;;;10.38;7.78;;;6.80;70.80;;;;;;4989580;28;20562;-61
2021/11/26 06:33:37;;;;;;;9.45;6.97;;;6.80;70.90;;;;;;4992084;28;20144;-61
2021/11/26 06:36:03;;;;;;;11.73;8.15;;;6.80;70.60;;;;;;4986934;28;20470;-61
2021/11/26 06:38:28;;;;;;;11.75;7.75;;;6.80;70.70;;;;;;4982753;28;20022;-61
2021/11/26 06:40:54;;;;;;;10.55;7.50;;;6.90;70.60;;;;;;4976727;28;20047;-62
2021/11/26 06:43:20;;;;;;;9.38;7.55;;;6.90;70.70;;;;;;4986704;28;20096;-62
2021/11/26 06:45:46;;;;;;;9.63;7.68;;;6.90;71.10;;;;;;4986577;28;20356;-62
2021/11/26 06:48:12;;;;;;;10.98;7.68;;;6.90;70.40;;;;;;4988333;28;20030;-62
2021/11/26 06:50:38;;;;;;;9.52;7.28;;;6.90;70.50;;;;;;4985491;28;20498;-62
2021/11/26 06:53:05;;;;;;;9.23;7.07;;;6.90;70.60;;;;;;4987758;28;20363;-62
2021/11/26 06:55:32;;;;;;;8.15;7.22;;;6.90;70.90;;;;;;4988410;28;20642;-62
2021/11/26 06:57:59;;;;;;;9.70;7.28;;;6.90;70.60;;;;;;4981467;28;20045;-62
2021/11/26 07:00:25;;;;;;;11.43;7.40;;;6.90;70.50;;;;;;4985113;28;20050;-62
2021/11/26 07:02:51;;;;;;;10.40;6.75;;;7.00;70.70;;;;;;4981390;28;20031;-63
2021/11/26 07:05:17;;;;;;;10.05;7.25;;;7.00;70.40;;;;;;4979977;28;20406;-62
2021/11/26 07:07:44;;;;;;;8.73;6.60;;;7.00;70.70;;;;;;4981251;28;20037;-62
2021/11/26 07:10:11;;;;;;;8.98;6.75;;;7.00;70.40;;;;;;4979733;28;20032;-62
2021/11/26 07:12:37;;;;;;;9.13;7.20;;;7.10;70.50;;;;;;4983100;28;20462;-62
2021/11/26 07:15:05;;;;;;;8.88;6.40;;;7.10;70.40;;;;;;4981826;28;20029;-62
2021/11/26 07:17:31;;;;;;;8.20;6.80;;;7.10;70.40;;;;;;4980406;28;20042;-62
2021/11/26 07:19:57;;;;;;;9.63;6.82;;;7.10;70.40;;;;;;4979497;28;20034;-62
2021/11/26 07:22:23;;;;;;;9.20;6.90;;;7.20;70.40;;;;;;4981113;28;20380;-60
2021/11/26 07:24:49;;;;;;;10.40;7.35;;;7.20;70.40;;;;;;4970006;28;20030;-62
2021/11/26 07:27:15;;;;;;;9.75;6.72;;;7.30;70.40;;;;;;4967538;28;20034;-63
2021/11/26 07:29:42;;;;;;;8.63;6.30;;;7.30;70.50;;;;;;4971521;28;20048;-62
2021/11/26 07:32:10;;;;;;;9.05;6.80;;;7.40;70.40;;;;;;4977787;28;20397;-61
2021/11/26 07:34:35;;;;;;;9.45;6.93;;;7.50;70.40;;;;;;4973614;28;20057;-61
2021/11/26 07:37:02;;;;;;;11.48;7.63;;;7.50;70.30;;;;;;4974948;28;20057;-62
2021/11/26 07:39:35;;;;;;;9.90;6.78;;;7.60;70.30;;;;;;4976207;28;20550;-65
2021/11/26 07:42:03;;;;;;;9.30;6.88;;;7.60;70.20;;;;;;4967756;28;20035;-62
2021/11/26 07:44:33;;;;;;;8.23;6.47;;;7.70;70.10;;;;;;4969521;28;20089;-61
2021/11/26 07:47:00;;;;;;;7.95;6.70;;;7.80;70.10;;;;;;4970840;28;20137;-61
2021/11/26 07:49:28;;;;;;;9.45;6.93;;;7.80;69.90;;;;;;4968671;28;20027;-62
2021/11/26 07:51:56;;;;;;;8.95;6.95;;;7.90;69.80;;;;;;4970622;28;20038;-61
2021/11/26 07:54:22;;;;;;;8.90;6.60;;;7.90;69.60;;;;;;4962192;28;20064;-63
2021/11/26 07:56:47;;;;;;;10.63;6.80;;;7.90;69.60;;;;;;4967266;28;20038;-62
2021/11/26 07:59:13;;;;;;;8.45;6.43;;;7.90;69.70;;;;;;4965631;28;20391;-61
2021/11/26 08:01:39;;;;;;;11.23;7.60;;;8.00;69.70;;;;;;4969543;28;20034;-61
2021/11/26 08:04:05;;;;;;;8.40;7.05;;;8.00;69.60;;;;;;4969511;28;20539;-63
2021/11/26 08:06:30;;;;;;;9.50;7.03;;;8.00;69.70;;;;;;4972717;28;20037;-62
2021/11/26 08:08:56;;;;;;;10.15;7.40;;;7.90;69.70;;;;;;4969031;28;20612;-62
2021/11/26 08:11:22;;;;;;;10.38;7.15;;;8.00;69.90;;;;;;4962393;28;20042;-62
2021/11/26 08:13:47;;;;;;;12.10;6.97;;;8.00;70.00;;;;;;4962935;28;20026;-64
2021/11/26 08:16:14;;;;;;;9.50;6.95;;;8.10;70.10;;;;;;4969401;28;20411;-63
2021/11/26 08:18:39;;;;;;;11.20;8.02;;;8.20;70.10;;;;;;4969917;28;20027;-64
2021/11/26 08:21:06;;;;;;;12.50;7.88;;;8.30;70.10;;;;;;4973967;28;20048;-60
2021/11/26 08:23:32;;;;;;;14.52;9.90;;;8.40;70.10;;;;;;4971831;28;20121;-61
2021/11/26 08:25:59;;;;;;;19.27;12.30;;;8.40;70.00;;;;;;4964642;28;20068;-62
2021/11/26 08:28:26;;;;;;;22.85;11.13;;;8.50;70.00;;;;;;4960034;28;20042;-63
2021/11/26 08:30:53;;;;;;;16.50;9.45;;;8.60;70.00;;;;;;4964386;28;20109;-62
2021/11/26 08:33:19;;;;;;;11.35;7.72;;;8.60;69.80;;;;;;4967936;28;20407;-64
2021/11/26 08:35:44;;;;;;;13.80;7.80;;;8.70;69.70;;;;;;4973330;28;20034;-63
2021/11/26 08:38:10;;;;;;;11.52;6.28;;;8.70;69.60;;;;;;4973159;28;20030;-62
2021/11/26 08:40:36;;;;;;;9.68;5.80;;;8.80;69.50;;;;;;4974576;28;20042;-63
2021/11/26 08:43:02;;;;;;;10.18;5.70;;;8.90;69.30;;;;;;4972310;28;20031;-63
2021/11/26 08:45:28;;;;;;;8.43;5.70;;;8.90;69.20;;;;;;4969396;28;21660;-64
2021/11/26 08:47:54;;;;;;;9.55;5.60;;;8.90;69.20;;;;;;4968064;28;20903;-63
2021/11/26 08:50:21;;;;;;;6.55;5.07;;;9.00;69.20;;;;;;4970380;28;20031;-63
2021/11/26 08:52:48;;;;;;;7.57;5.93;;;9.00;69.10;;;;;;4967264;28;20033;-63
2021/11/26 08:55:17;;;;;;;10.07;5.47;;;9.10;68.90;;;;;;4959625;28;20117;-63
2021/11/26 08:57:50;;;;;;;7.82;5.38;;;9.10;68.90;;;;;;4970385;28;20042;-63
2021/11/26 09:00:18;;;;;;;10.45;5.70;;;9.20;68.90;;;;;;4968689;28;20182;-63
2021/11/26 09:02:44;;;;;;;7.80;5.68;;;9.20;68.80;;;;;;4966869;28;20030;-62
2021/11/26 09:05:10;;;;;;;10.10;5.70;;;9.30;68.70;;;;;;4965999;28;20557;-62
2021/11/26 09:07:35;;;;;;;6.72;4.90;;;9.30;68.60;;;;;;4978113;28;20221;-63
2021/11/26 09:10:01;;;;;;;10.77;5.38;;;9.30;68.70;;;;;;4969737;28;20035;-63
2021/11/26 09:12:29;;;;;;;7.55;4.80;;;9.40;68.50;;;;;;4966025;28;20030;-63
2021/11/26 09:14:55;;;;;;;9.48;6.10;;;9.40;68.40;;;;;;4959331;28;20061;-63
2021/11/26 09:17:21;;;;;;;8.40;4.70;;;9.40;68.40;;;;;;4957135;28;20059;-63
2021/11/26 09:19:47;;;;;;;7.55;4.93;;;9.50;68.30;;;;;;4963205;28;20042;-63
2021/11/26 09:22:13;;;;;;;6.78;5.30;;;9.50;68.20;;;;;;4967120;28;22803;-63
2021/11/26 09:24:38;;;;;;;6.90;4.72;;;9.50;68.20;;;;;;4947931;28;20037;-63
2021/11/26 09:27:05;;;;;;;8.48;5.65;;;9.50;68.10;;;;;;4958289;28;20038;-63
2021/11/26 09:29:30;;;;;;;7.75;5.55;;;9.60;68.10;;;;;;4969676;28;20084;-63
2021/11/26 09:31:56;;;;;;;7.07;4.90;;;9.60;68.00;;;;;;4963159;28;20054;-62
2021/11/26 09:34:22;;;;;;;9.20;5.43;;;9.60;68.10;;;;;;4954571;28;20519;-63
2021/11/26 09:36:48;;;;;;;6.82;4.60;;;9.60;68.10;;;;;;4954557;28;20042;-62
2021/11/26 09:39:14;;;;;;;8.38;5.40;;;9.70;68.10;;;;;;4973797;28;20030;-63
2021/11/26 09:41:39;;;;;;;10.13;5.68;;;9.70;68.00;;;;;;4976641;28;20058;-62
2021/11/26 09:44:07;;;;;;;6.97;5.05;;;9.70;68.00;;;;;;4965771;28;20049;-63
2021/11/26 09:46:38;;;;;;;6.88;4.70;;;9.70;67.90;;;;;;4962194;28;20092;-62
2021/11/26 09:49:05;;;;;;;6.65;4.97;;;9.70;67.90;;;;;;4973865;28;20506;-61
2021/11/26 09:51:31;;;;;;;7.35;5.18;;;9.70;68.00;;;;;;4974587;28;20039;-61
2021/11/26 09:53:57;;;;;;;7.95;5.03;;;9.70;68.00;;;;;;4964642;28;20077;-63
2021/11/26 09:56:23;;;;;;;8.70;5.82;;;9.70;67.90;;;;;;4963103;28;20030;-62
2021/11/26 09:58:49;;;;;;;8.05;5.10;;;9.80;68.00;;;;;;4959269;28;20042;-63
2021/11/26 10:01:15;;;;;;;6.32;4.80;;;9.80;67.90;;;;;;4961015;28;20046;-63
2021/11/26 10:03:45;;;;;;;6.82;5.00;;;9.80;67.90;;;;;;4959453;28;20041;-63
2021/11/26 10:06:45;;;;;;;7.50;5.60;;;9.80;67.90;;;;;;4959139;28;20049;-62
2021/11/26 10:09:19;;;;;;;8.80;5.72;;;9.80;67.90;;;;;;4970817;28;20035;-62
2021/11/26 10:11:58;;;;;;;7.60;5.90;;;9.80;68.00;;;;;;4975890;28;20105;-62
2021/11/26 10:14:23;;;;;;;8.93;6.78;;;9.80;68.10;;;;;;4959708;28;20046;-62
2021/11/26 10:16:54;;;;;;;7.78;5.03;;;9.80;68.10;;;;;;4959687;28;20034;-62
2021/11/26 10:19:32;;;;;;;6.55;4.68;;;9.80;68.00;;;;;;4973158;28;20026;-62
2021/11/26 10:21:58;;;;;;;6.05;4.65;;;9.90;68.10;;;;;;4978641;28;20035;-62
2021/11/26 10:24:24;;;;;;;6.70;4.80;;;9.90;68.10;;;;;;4965495;28;20406;-63
2021/11/26 10:26:53;;;;;;;7.40;5.32;;;9.90;68.30;;;;;;4970302;28;20037;-63
2021/11/26 10:29:32;;;;;;;8.15;5.53;;;9.90;68.10;;;;;;4968915;28;20168;-63
2021/11/26 10:32:05;;;;;;;9.60;6.18;;;9.90;67.90;;;;;;4971435;28;20041;-60
2021/11/26 10:34:31;;;;;;;8.10;6.32;;;10.00;67.90;;;;;;4968139;28;20022;-63
2021/11/26 10:36:57;;;;;;;8.50;5.75;;;10.00;67.80;;;;;;4966959;28;20090;-63
2021/11/26 10:39:24;;;;;;;8.05;5.50;;;10.00;67.90;;;;;;4961026;28;20040;-63
2021/11/26 10:41:53;;;;;;;9.60;4.78;;;10.00;67.90;;;;;;4969095;28;20042;-63
2021/11/26 10:44:29;;;;;;;6.10;5.03;;;10.00;67.90;;;;;;4971531;28;20112;-63
2021/11/26 10:47:11;;;;;;;8.90;5.85;;;10.00;68.50;;;;;;4960536;28;20042;-63
2021/11/26 10:49:47;;;;;;;11.63;6.90;;;10.10;67.90;;;;;;4965325;28;20133;-62
2021/11/26 11:00:20;;;;;;;16.55;9.88;;;10.20;67.90;;;;;;4963447;28;20026;-63
2021/11/26 11:02:48;;;;;;;17.98;10.13;;;10.30;67.80;;;;;;4955707;28;20130;-63
2021/11/26 11:05:31;;;;;;;16.90;8.75;;;10.30;67.80;;;;;;4963834;28;20061;-63
2021/11/26 11:08:00;;;;;;;13.23;8.02;;;10.50;67.70;;;;;;4973460;28;20038;-63
2021/11/26 11:10:29;;;;;;;11.18;6.57;;;10.50;67.50;;;;;;4984631;28;20026;-62
2021/11/26 11:12:58;;;;;;;12.45;7.35;;;10.50;67.50;;;;;;4978441;28;20033;-62
2021/11/26 11:15:24;;;;;;;12.43;7.32;;;10.60;67.20;;;;;;4977505;28;20034;-63
2021/11/26 11:17:51;;;;;;;15.82;8.57;;;10.60;67.20;;;;;;4973744;28;20023;-63
2021/11/26 11:20:19;;;;;;;15.75;7.88;;;10.60;67.00;;;;;;4973755;28;20041;-63
2021/11/26 11:22:45;;;;;;;10.75;6.68;;;10.70;66.90;;;;;;4968690;28;20038;-63
2021/11/26 11:25:16;;;;;;;8.90;6.10;;;10.70;66.90;;;;;;4969212;28;20038;-63
2021/11/26 11:27:42;;;;;;;9.98;5.65;;;10.70;66.90;;;;;;4970956;28;20397;-63
2021/11/26 11:30:10;;;;;;;8.02;5.30;;;10.70;66.90;;;;;;4972943;28;20034;-63
2021/11/26 11:32:37;;;;;;;9.38;6.03;;;10.70;66.80;;;;;;4973537;28;20031;-63
2021/11/26 11:35:08;;;;;;;5.93;4.63;;;10.80;66.80;;;;;;4972621;28;20085;-63
2021/11/26 11:37:35;;;;;;;7.85;5.15;;;10.80;66.60;;;;;;4974711;28;20030;-62
2021/11/26 11:40:07;;;;;;;6.70;4.95;;;10.80;66.40;;;;;;4975816;28;20042;-63
2021/11/26 11:42:38;;;;;;;9.10;5.75;;;10.80;66.30;;;;;;4974333;28;20097;-60
2021/11/26 11:45:11;;;;;;;11.60;7.00;;;10.90;66.40;;;;;;4976541;28;20045;-62
2021/11/26 11:47:49;;;;;;;13.43;8.63;;;10.90;66.30;;;;;;4972963;28;20598;-61
2021/11/26 11:50:20;;;;;;;12.68;9.00;;;10.90;66.10;;;;;;4971046;28;20035;-61
2021/11/26 11:52:53;;;;;;;19.27;11.85;;;10.90;66.10;;;;;;4968516;28;20165;-63
2021/11/26 11:55:25;;;;;;;18.10;10.82;;;10.90;66.10;;;;;;4966679;28;20034;-63
2021/11/26 11:57:56;;;;;;;18.77;9.77;;;10.90;66.10;;;;;;4970975;28;20042;-63
2021/11/26 12:00:23;;;;;;;16.40;8.07;;;10.90;66.20;;;;;;4968990;28;20049;-64
2021/11/26 12:02:50;;;;;;;10.57;6.85;;;11.00;66.10;;;;;;4964147;28;20045;-63
2021/11/26 12:05:20;;;;;;;14.85;8.75;;;11.00;66.10;;;;;;4962599;28;20042;-60
2021/11/26 12:07:45;;;;;;;16.77;10.95;;;11.10;66.10;;;;;;4970124;28;20037;-63
2021/11/26 12:10:13;;;;;;;24.77;15.80;;;11.00;65.90;;;;;;4971212;28;20022;-62
2021/11/26 12:12:49;;;;;;;31.33;15.95;;;11.10;66.00;;;;;;4967312;28;20037;-61
2021/11/26 12:15:22;;;;;;;34.40;16.30;;;11.00;65.90;;;;;;4969933;28;20050;-62
2021/11/26 12:18:00;;;;;;;35.97;15.73;;;11.00;65.90;;;;;;4962563;28;20035;-60
2021/11/26 12:20:27;;;;;;;32.42;15.55;;;11.00;66.00;;;;;;4955405;28;20057;-64
2021/11/26 12:22:58;;;;;;;26.75;13.13;;;10.90;65.90;;;;;;4957816;28;20198;-63
2021/11/26 12:28:25;;;;;;;19.45;10.57;;;10.90;66.10;;;;;;4961558;28;20414;-61
2021/11/26 12:31:05;;;;;;;15.73;8.90;;;10.90;66.10;;;;;;4968791;28;20037;-61
2021/11/26 12:34:21;;;;;;;21.70;10.52;;;10.90;66.10;;;;;;4958917;28;20050;-63
2021/11/26 12:36:48;;;;;;;18.65;11.07;;;10.90;66.30;;;;;;4950910;28;20073;-60
2021/11/26 12:41:57;;;;;;;14.23;8.13;;;10.80;66.90;;;;;;4988627;28;20457;-61
2021/11/26 12:44:34;;;;;;;11.48;6.35;;;10.90;66.60;;;;;;4984246;28;20030;-61
2021/11/26 12:47:08;;;;;;;9.75;5.90;;;10.90;66.60;;;;;;4991278;28;20069;-63
2021/11/26 12:52:17;;;;;;;8.60;4.82;;;10.80;66.40;;;;;;5005993;28;20069;-63
2021/11/26 12:54:54;;;;;;;8.27;5.13;;;10.80;66.50;;;;;;4968607;28;20056;-63
2021/11/26 12:57:21;;;;;;;6.03;5.15;;;10.80;66.70;;;;;;5000004;28;20018;-64
2021/11/26 12:59:53;;;;;;;7.03;5.35;;;10.80;66.80;;;;;;5006680;28;20056;-62
2021/11/26 13:02:24;;;;;;;7.35;5.32;;;10.80;66.80;;;;;;5003490;28;20030;-62
2021/11/26 13:05:13;;;;;;;8.73;6.00;;;10.80;66.80;;;;;;5003615;28;20026;-62
2021/11/26 13:07:41;;;;;;;8.70;5.88;;;10.70;66.90;;;;;;5001456;28;20359;-62